BGW weather

Baghdad International Airport
Baghdad, Baghdad Governorate, Iraq

Public forecast

Using degrees Celsius for public forecast. Weather courtesy of forecast.io.

METAR (pilot weather report)

Retrieved 2019/02/17 00:00 UTC (15 minutes ago):

ORBI 170000Z 16004KT CAVOK 08/06 Q1020 NOSIG

TAF (pilot weather forecast)

Retrieved 2019/02/17 00:03 UTC (12 minutes ago):

TAF TAF ORBI 162300Z 1700/1724 VRB03KT 8000 SCT030 SCT080 TEMPO 1700/1706 -RA BECMG 1706/1708 32006KT CAVOK